Oxford, Georgia
Current Conditions -  °F | °C
As of 1:15 PM on Monday 26 Jan 2015 (Local Time) from KCVC Reporting Station
Overcast Overcast  
Wind Chill: 41°   Ceiling: 2800
Heat Index: 46°   Visibility: 10mi
Dew Point: 36°   Wind: 13mph
Humidity: 66%   Direction: 280°W
Pressure: 29.8"   Gusts: 20mph
Location:  33.62°N, 83.87°W
Report Text: KCVC 261815Z AUTO 28011G17KT 10SM BKN028 OVC033 08/02 A2980 RMK AO2
Loading
Personal Weather Stations






























Interactive Weather Map New forecast layout! Learn more

10-Day Weather Forecast

Advertisements
Track Severe Weather on mobile